Time;durP1;ratioP1;P1;durP2;ratioP2;P2;SDS_P1;SDS_P2;PMS_P1;PMS_P2;Temp;Humidity;BMP_temperature;BMP_pressure;BME280_temperature;BME280_humidity;BME280_pressure;Samples;Min_cycle;Max_cycle;Signal;HPM_P1;HPM_P2
2022/09/13 00:01:33;;;;;;;5.03;3.83;;;17.10;99.90;;;17.76;79.81;100166.84;4896704;29;20654;-64
2022/09/13 00:04:00;;;;;;;5.80;3.60;;;17.10;99.90;;;17.75;79.45;100158.13;4895949;29;20659;-64
2022/09/13 00:06:27;;;;;;;7.30;4.77;;;17.10;99.90;;;17.63;80.45;100158.66;4895407;29;20623;-64
2022/09/13 00:08:54;;;;;;;8.23;4.10;;;17.00;99.90;;;17.64;80.17;100150.56;4895697;29;20615;-64
2022/09/13 00:11:28;;;;;;;7.50;4.10;;;17.00;99.90;;;17.59;80.11;100150.22;4896334;29;20724;-65
2022/09/13 00:13:56;;;;;;;10.27;5.00;;;16.90;99.90;;;17.56;80.45;100150.56;4895615;29;21227;-65
2022/09/13 00:16:26;;;;;;;6.27;4.37;;;16.90;99.90;;;17.53;81.00;100148.25;4894966;29;21156;-65
2022/09/13 00:18:55;;;;;;;7.77;3.40;;;16.90;99.90;;;17.62;80.54;100144.63;4895029;29;20632;-64
2022/09/13 00:21:23;;;;;;;3.93;3.53;;;16.90;99.90;;;17.53;80.95;100150.06;4896669;29;21281;-64
2022/09/13 00:23:52;;;;;;;6.50;3.90;;;16.90;99.90;;;17.54;81.09;100146.44;4915426;29;21020;-65
2022/09/13 00:26:23;;;;;;;16.40;4.27;;;16.90;99.90;;;17.50;81.07;100139.84;4917891;29;20626;-66
2022/09/13 00:28:52;;;;;;;10.40;4.17;;;16.80;99.90;;;17.51;81.58;100144.13;4899660;29;20694;-65
2022/09/13 00:31:22;;;;;;;6.73;4.07;;;16.80;99.90;;;17.53;81.56;100144.78;4915650;29;20642;-64
2022/09/13 00:33:49;;;;;;;8.53;5.50;;;16.80;99.90;;;17.45;81.60;100147.41;4915627;29;21201;-65
2022/09/13 00:36:17;;;;;;;7.27;5.00;;;16.80;99.90;;;17.51;80.75;100146.75;4913056;29;20655;-65
2022/09/13 00:38:44;;;;;;;8.90;4.53;;;16.80;99.90;;;17.58;80.21;100147.75;4917852;29;20626;-65
2022/09/13 00:41:15;;;;;;;6.53;4.70;;;16.90;99.90;;;17.56;79.32;100145.28;4907596;29;21262;-65
2022/09/13 00:43:55;;;;;;;6.97;4.27;;;16.90;99.90;;;17.58;79.11;100145.13;4899461;29;20749;-65
2022/09/13 00:46:41;;;;;;;5.70;3.70;;;16.90;99.90;;;17.45;80.00;100140.31;4897655;29;20686;-65
2022/09/13 00:49:11;;;;;;;6.30;3.70;;;16.90;99.90;;;17.54;79.62;100139.38;4897984;29;21233;-65
2022/09/13 00:51:43;;;;;;;9.90;4.40;;;16.90;99.90;;;17.53;79.97;100142.16;4899929;29;20809;-65
2022/09/13 00:54:12;;;;;;;10.73;5.00;;;16.80;99.90;;;17.48;80.50;100137.34;4898564;29;20627;-65
2022/09/13 00:56:42;;;;;;;7.00;4.70;;;16.80;99.90;;;17.38;81.34;100147.22;4897764;29;20694;-65
2022/09/13 00:59:16;;;;;;;7.27;4.20;;;16.80;99.90;;;17.42;80.57;100153.81;4898754;29;20611;-65
2022/09/13 01:01:48;;;;;;;6.73;4.57;;;16.80;99.90;;;17.42;80.55;100153.81;4898618;29;20643;-65
2022/09/13 01:04:20;;;;;;;8.30;5.40;;;16.80;99.90;;;17.38;80.25;100154.31;4913073;29;21226;-65
2022/09/13 01:06:48;;;;;;;5.50;4.30;;;16.70;99.90;;;17.39;79.57;100137.53;4898518;29;20615;-64
2022/09/13 01:09:15;;;;;;;8.97;4.50;;;16.70;99.90;;;17.44;79.80;100132.59;4912948;29;20994;-65
2022/09/13 01:11:59;;;;;;;7.27;5.00;;;16.70;99.90;;;17.34;79.85;100126.63;4899595;29;20663;-64
2022/09/13 01:14:26;;;;;;;8.40;4.50;;;16.70;99.90;;;17.38;79.75;100127.94;4917095;29;20811;-65
2022/09/13 01:16:53;;;;;;;5.50;4.17;;;16.70;99.90;;;17.40;79.83;100141.81;4905420;29;20637;-65
2022/09/13 01:19:20;;;;;;;8.43;5.20;;;16.70;99.90;;;17.39;80.21;100150.72;4913322;29;20690;-65
2022/09/13 01:22:11;;;;;;;5.10;3.97;;;16.70;99.90;;;17.35;79.81;100144.13;4897509;29;20650;-65
2022/09/13 01:25:38;;;;;;;5.90;3.87;;;16.70;99.90;;;17.30;80.74;100141.13;4897566;29;20662;-65
2022/09/13 01:28:40;;;;;;;5.47;3.97;;;16.60;99.90;;;17.21;81.20;100150.84;4913982;29;20623;-65
2022/09/13 01:31:24;;;;;;;8.17;5.23;;;16.60;99.90;;;17.21;80.73;100155.31;4926173;29;21231;-65
2022/09/13 01:34:15;;;;;;;13.77;4.70;;;16.50;99.90;;;17.24;80.86;100160.25;4923036;29;21049;-64
2022/09/13 01:37:23;;;;;;;7.00;4.43;;;16.50;99.90;;;17.20;80.40;100154.50;4912715;29;20649;-65
2022/09/13 01:40:28;;;;;;;7.80;4.17;;;16.50;99.90;;;17.13;80.65;100152.66;4898280;29;20618;-65
2022/09/13 01:43:10;;;;;;;6.37;3.90;;;16.50;99.90;;;17.11;80.31;100142.28;4912142;29;20633;-65
2022/09/13 01:45:53;;;;;;;6.30;4.20;;;16.40;99.90;;;17.04;80.64;100155.28;4914535;29;20709;-65
2022/09/13 01:48:26;;;;;;;6.40;4.53;;;16.40;99.90;;;17.04;80.11;100150.03;4916737;29;20606;-65
2022/09/13 01:51:08;;;;;;;10.27;4.43;;;16.40;99.90;;;17.08;80.26;100145.25;4915577;29;20701;-65
2022/09/13 01:53:43;;;;;;;5.93;4.43;;;16.40;99.90;;;16.99;80.43;100141.78;4910499;29;20721;-65
2022/09/13 01:56:58;;;;;;;8.23;4.00;;;16.30;99.90;;;16.97;81.11;100150.84;4898019;29;20611;-65
2022/09/13 01:59:42;;;;;;;6.40;3.97;;;16.30;99.90;;;16.97;80.95;100145.59;4895045;29;20650;-66
2022/09/13 02:02:41;;;;;;;9.87;4.00;;;16.30;99.90;;;16.86;81.11;100144.09;4897804;29;20698;-65
2022/09/13 02:05:37;;;;;;;6.50;4.20;;;16.30;99.90;;;16.87;81.11;100144.88;4912332;29;20741;-65
2022/09/13 02:08:12;;;;;;;10.23;4.07;;;16.30;99.90;;;16.87;82.00;100158.91;4912417;29;20626;-65
2022/09/13 02:10:48;;;;;;;8.70;5.00;;;16.20;99.90;;;16.89;81.61;100159.56;4902386;29;21328;-65
2022/09/13 02:13:21;;;;;;;6.47;4.37;;;16.20;99.90;;;16.89;81.61;100174.53;4896915;29;20670;-65
2022/09/13 02:15:57;;;;;;;8.30;4.97;;;16.20;99.90;;;16.92;80.86;100172.41;4898445;29;20654;-65
2022/09/13 02:18:34;;;;;;;10.23;4.50;;;16.20;99.90;;;16.77;81.14;100176.66;4905896;29;20629;-65
2022/09/13 02:21:12;;;;;;;5.20;3.90;;;16.20;99.90;;;16.81;80.74;100180.63;4914445;29;20873;-64
2022/09/13 02:23:50;;;;;;;7.70;4.50;;;16.20;99.90;;;16.77;80.73;100184.56;4916220;29;20622;-65
2022/09/13 02:26:20;;;;;;;8.10;4.30;;;16.20;99.90;;;16.78;80.97;100180.13;4903633;29;20671;-65
2022/09/13 02:28:54;;;;;;;6.80;4.20;;;16.20;99.90;;;16.67;81.46;100173.34;4897249;29;21171;-65
2022/09/13 02:31:35;;;;;;;8.00;4.53;;;16.10;99.90;;;16.65;81.79;100172.66;4901683;29;20738;-65
2022/09/13 02:34:13;;;;;;;6.53;4.50;;;16.10;99.90;;;16.59;82.36;100170.66;4895561;29;20619;-64
2022/09/13 02:36:42;;;;;;;6.40;4.10;;;16.00;99.90;;;16.61;82.67;100166.06;4899142;29;20693;-65
2022/09/13 02:39:15;;;;;;;6.37;4.63;;;16.00;99.90;;;16.67;82.31;100178.63;4916678;29;20658;-65
2022/09/13 02:42:05;;;;;;;8.10;4.17;;;16.00;99.90;;;16.65;82.29;100172.66;4914485;29;20642;-65
2022/09/13 02:44:50;;;;;;;6.97;4.27;;;16.00;99.90;;;16.62;82.68;100170.34;4916369;29;20694;-65
2022/09/13 02:47:58;;;;;;;7.83;5.13;;;16.00;99.90;;;16.62;83.25;100170.34;4897109;29;20607;-65
2022/09/13 02:50:55;;;;;;;6.83;4.37;;;15.90;99.90;;;16.62;83.14;100170.34;4895579;29;20658;-65
2022/09/13 02:53:35;;;;;;;5.57;4.23;;;16.00;99.90;;;16.67;82.54;100161.97;4896039;29;20615;-64
2022/09/13 02:56:21;;;;;;;8.40;4.50;;;16.00;99.90;;;16.70;83.06;100156.38;4918874;29;21043;-65
2022/09/13 02:59:04;;;;;;;7.93;4.40;;;16.00;99.90;;;16.69;83.01;100160.84;4916056;29;20626;-64
2022/09/13 03:01:34;;;;;;;8.27;4.50;;;16.00;99.90;;;16.72;83.07;100160.50;4912780;29;20666;-64
2022/09/13 03:04:02;;;;;;;11.90;4.70;;;16.00;99.90;;;16.77;82.83;100162.66;4914772;29;21181;-65
2022/09/13 03:06:29;;;;;;;8.90;4.87;;;16.10;99.90;;;16.75;82.37;100165.47;4910051;29;21230;-64
2022/09/13 03:09:02;;;;;;;8.53;5.10;;;16.10;99.90;;;16.85;81.55;100166.13;4914923;29;21205;-65
2022/09/13 03:11:56;;;;;;;7.80;5.03;;;16.10;99.90;;;16.74;81.35;100153.25;4913610;29;20721;-65
2022/09/13 03:14:48;;;;;;;8.57;4.60;;;16.10;99.90;;;16.81;80.88;100146.38;4914107;29;21018;-65
2022/09/13 03:17:33;;;;;;;7.73;4.60;;;16.10;99.90;;;16.81;81.44;100137.63;4906413;29;21005;-64
2022/09/13 03:20:35;;;;;;;4.33;3.50;;;16.10;99.90;;;16.67;81.48;100133.84;4915698;29;20614;-65
2022/09/13 03:23:41;;;;;;;9.50;4.37;;;16.10;99.90;;;16.59;82.35;100125.88;4914810;29;20669;-65
2022/09/13 03:26:45;;;;;;;10.40;4.47;;;16.00;99.90;;;16.65;82.26;100117.34;4896097;29;20671;-65
2022/09/13 03:30:06;;;;;;;10.90;4.70;;;15.90;99.90;;;16.58;82.45;100108.47;4895560;29;20686;-65
2022/09/13 03:32:52;;;;;;;7.97;4.67;;;15.90;99.90;;;16.64;82.69;100114.88;4910882;29;20675;-67
2022/09/13 03:35:40;;;;;;;5.90;4.43;;;16.00;99.90;;;16.70;81.96;100122.97;4894443;29;20631;-64
2022/09/13 03:38:28;;;;;;;8.70;4.37;;;16.00;99.90;;;16.71;82.00;100122.00;4896432;29;20627;-66
2022/09/13 03:41:07;;;;;;;8.33;4.57;;;16.00;99.90;;;16.75;81.58;100138.28;4896284;29;20655;-64
2022/09/13 03:43:57;;;;;;;7.93;4.90;;;16.10;99.90;;;16.81;81.36;100142.91;4893750;29;20706;-64
2022/09/13 03:46:45;;;;;;;6.57;4.87;;;16.10;99.90;;;16.78;81.81;100138.78;4904229;29;20669;-65
2022/09/13 03:49:18;;;;;;;5.87;4.10;;;16.10;99.90;;;16.86;81.39;100145.88;4909720;29;20693;-66
2022/09/13 03:51:50;;;;;;;10.40;4.60;;;16.20;99.90;;;16.89;81.52;100135.00;4893991;29;21095;-65
2022/09/13 03:54:43;;;;;;;7.33;4.40;;;16.20;99.90;;;16.92;81.15;100137.31;4895075;29;21201;-65
2022/09/13 03:57:19;;;;;;;10.27;4.57;;;16.20;99.90;;;16.98;80.12;100126.97;4894402;29;20648;-66
2022/09/13 03:59:52;;;;;;;8.20;5.50;;;16.20;99.90;;;16.96;79.70;100126.31;4896024;29;20655;-65
2022/09/13 04:02:22;;;;;;;5.50;3.90;;;16.20;99.90;;;16.94;79.94;100130.09;4895630;29;20634;-65
2022/09/13 04:04:50;;;;;;;7.03;4.50;;;16.20;99.90;;;16.88;80.53;100131.56;4893004;29;20671;-65
2022/09/13 04:07:20;;;;;;;6.30;4.33;;;16.20;99.90;;;16.91;80.94;100138.31;4895586;29;20615;-65
2022/09/13 04:09:48;;;;;;;6.97;4.23;;;16.20;99.90;;;16.92;80.14;100130.25;4895502;29;20638;-65
2022/09/13 04:12:16;;;;;;;7.67;3.83;;;16.20;99.90;;;16.96;80.71;100134.22;4894309;29;20670;-64
2022/09/13 04:14:44;;;;;;;8.63;3.97;;;16.30;99.90;;;16.90;81.18;100129.59;4892818;29;20698;-65
2022/09/13 04:17:11;;;;;;;9.73;4.47;;;16.20;99.90;;;16.85;81.39;100145.06;4893989;29;20639;-64
2022/09/13 04:19:39;;;;;;;13.73;4.90;;;16.20;99.90;;;16.87;81.96;100135.19;4895242;29;20611;-65
2022/09/13 04:22:06;;;;;;;7.83;4.27;;;16.20;99.90;;;16.89;81.58;100125.31;4902526;29;20748;-64
2022/09/13 04:24:33;;;;;;;7.20;4.70;;;16.20;99.90;;;16.89;81.89;100121.84;4914919;29;20635;-65
2022/09/13 04:27:00;;;;;;;8.33;4.70;;;16.20;99.90;;;16.85;81.98;100110.81;4914381;29;20630;-65
2022/09/13 04:29:27;;;;;;;6.10;4.40;;;16.20;99.90;;;16.76;82.71;100117.03;4913466;29;20629;-66
2022/09/13 04:31:54;;;;;;;5.10;3.67;;;16.10;99.90;;;16.72;82.89;100113.09;4914501;29;20993;-65
2022/09/13 04:34:22;;;;;;;10.70;4.83;;;16.10;99.90;;;16.76;82.21;100122.31;4914624;29;20999;-65
2022/09/13 04:36:51;;;;;;;7.97;4.70;;;16.10;99.90;;;16.72;82.61;100123.63;4914098;29;20669;-65
2022/09/13 04:39:19;;;;;;;7.47;5.60;;;16.10;99.90;;;16.77;82.84;100128.41;4913667;29;20685;-65
2022/09/13 04:41:47;;;;;;;7.20;4.80;;;16.10;99.90;;;16.80;82.71;100121.00;4912790;29;20670;-65
2022/09/13 04:44:16;;;;;;;7.47;4.00;;;16.10;99.90;;;16.69;83.01;100121.31;4914227;29;21001;-65
2022/09/13 04:46:47;;;;;;;7.30;4.37;;;16.10;99.90;;;16.66;83.51;100113.75;4914270;29;20666;-65
2022/09/13 04:49:15;;;;;;;7.70;4.77;;;16.00;99.90;;;16.62;83.31;100122.13;4915572;29;20624;-64
2022/09/13 04:51:43;;;;;;;7.33;4.50;;;16.00;99.90;;;16.63;83.00;100119.31;4913592;29;21288;-65
2022/09/13 04:54:11;;;;;;;12.20;4.97;;;16.00;99.90;;;16.65;83.73;100132.34;4903140;29;20631;-65
2022/09/13 04:56:43;;;;;;;10.73;5.37;;;16.00;99.90;;;16.66;83.35;100140.06;4907414;29;20679;-66
2022/09/13 04:59:11;;;;;;;11.77;5.73;;;16.00;99.90;;;16.71;83.32;100153.59;4909332;29;20630;-65
2022/09/13 05:01:38;;;;;;;7.73;5.47;;;16.00;99.90;;;16.73;83.26;100143.72;4901749;29;20674;-65
2022/09/13 05:04:07;;;;;;;8.97;5.00;;;16.00;99.90;;;16.77;83.02;100139.78;4894355;29;20647;-68
2022/09/13 05:06:34;;;;;;;6.87;5.37;;;16.00;99.90;;;16.81;82.38;100137.63;4905883;29;20673;-65
2022/09/13 05:09:04;;;;;;;8.40;4.80;;;16.10;99.90;;;16.88;81.56;100138.66;4908541;29;20694;-66
2022/09/13 05:11:31;;;;;;;7.27;4.90;;;16.10;99.90;;;16.88;81.67;100149.19;4898036;29;20706;-65
2022/09/13 05:14:00;;;;;;;6.30;4.57;;;16.10;99.90;;;16.96;81.38;100163.19;4899007;29;20988;-65
2022/09/13 05:16:30;;;;;;;9.77;5.10;;;16.20;99.90;;;16.95;81.13;100164.16;4907944;29;20646;-65
2022/09/13 05:18:58;;;;;;;6.60;4.60;;;16.30;99.90;;;17.02;80.91;100164.34;4897244;29;20622;-65
2022/09/13 05:21:26;;;;;;;4.30;3.90;;;16.30;99.90;;;17.08;80.88;100157.63;4898422;29;20663;-66
2022/09/13 05:23:55;;;;;;;7.73;5.13;;;16.30;99.90;;;17.11;80.30;100160.75;4909760;29;21049;-66
2022/09/13 05:26:25;;;;;;;4.87;4.03;;;16.40;99.90;;;17.08;80.39;100160.25;4916391;29;20670;-66
2022/09/13 05:28:52;;;;;;;6.00;4.70;;;16.40;99.90;;;17.14;80.41;100162.22;4898683;29;20635;-65
2022/09/13 05:31:27;;;;;;;5.80;4.20;;;16.40;99.90;;;17.14;80.03;100178.06;4914621;29;21237;-66
2022/09/13 05:33:58;;;;;;;5.30;4.00;;;16.40;99.90;;;17.20;79.98;100169.50;4914224;29;20736;-65
2022/09/13 05:36:26;;;;;;;7.00;3.50;;;16.50;99.90;;;17.16;79.58;100163.72;4915105;29;20638;-65
2022/09/13 05:38:54;;;;;;;3.90;3.13;;;16.50;99.90;;;16.87;81.28;100163.34;4909237;29;20645;-65
2022/09/13 05:41:41;;;;;;;3.37;2.90;;;16.30;99.90;;;16.72;81.91;100157.88;4910515;29;20641;-65
2022/09/13 05:44:08;;;;;;;4.57;3.67;;;16.20;99.90;;;16.67;82.58;100162.81;4916930;29;20677;-65
2022/09/13 05:46:40;;;;;;;3.63;3.00;;;16.20;99.90;;;16.60;83.23;100156.53;4916097;29;20673;-65
2022/09/13 05:49:07;;;;;;;3.57;3.00;;;16.10;99.90;;;16.66;82.81;100161.16;4898809;29;20765;-65
2022/09/13 05:51:34;;;;;;;6.17;4.00;;;16.10;99.90;;;16.80;82.56;100163.16;4896445;29;20635;-65
2022/09/13 05:54:01;;;;;;;5.27;3.20;;;16.20;99.90;;;16.80;82.30;100163.16;4913744;29;21184;-64
2022/09/13 05:56:30;;;;;;;4.17;3.40;;;16.30;99.90;;;16.67;83.33;100167.25;4916292;29;20626;-65
2022/09/13 05:58:57;;;;;;;5.43;3.90;;;16.20;99.90;;;16.73;83.23;100164.81;4916853;29;20693;-65
2022/09/13 06:01:27;;;;;;;3.77;3.20;;;16.20;99.90;;;16.77;83.19;100157.38;4916206;29;20653;-64
2022/09/13 06:03:58;;;;;;;6.43;3.50;;;16.20;99.90;;;16.78;83.75;100157.22;4914855;29;20705;-65
2022/09/13 06:06:25;;;;;;;4.73;3.83;;;16.20;99.90;;;17.01;82.56;100160.88;4916270;29;20665;-65
2022/09/13 06:08:56;;;;;;;4.83;3.93;;;16.40;99.90;;;17.20;81.77;100167.69;4912443;29;21020;-65
2022/09/13 06:11:25;;;;;;;6.37;4.10;;;16.50;99.90;;;17.32;81.53;100165.53;4916904;29;20626;-65
2022/09/13 06:13:52;;;;;;;4.00;3.60;;;16.60;99.90;;;17.45;80.70;100165.88;4903387;29;21218;-65
2022/09/13 06:16:19;;;;;;;3.63;3.33;;;16.70;99.90;;;17.31;81.24;100166.53;4900651;29;20641;-65
2022/09/13 06:18:47;;;;;;;5.83;3.53;;;16.70;99.90;;;17.28;81.57;100158.94;4916008;29;20634;-65
2022/09/13 06:21:20;;;;;;;3.80;2.90;;;16.70;99.90;;;17.25;82.12;100156.66;4913765;29;20673;-65
2022/09/13 06:23:54;;;;;;;4.17;3.20;;;16.60;99.90;;;17.36;81.36;100159.75;4916178;29;20630;-65
2022/09/13 06:26:24;;;;;;;4.27;3.27;;;16.70;99.90;;;17.35;81.79;100159.94;4898379;29;20683;-65
2022/09/13 06:28:55;;;;;;;6.27;4.33;;;16.70;99.90;;;17.38;81.52;100165.69;4897466;29;20615;-65
2022/09/13 06:31:25;;;;;;;4.90;3.50;;;16.70;99.90;;;17.50;80.73;100164.44;4907943;29;20665;-65
2022/09/13 06:34:03;;;;;;;3.90;2.97;;;16.80;99.90;;;17.46;81.40;100151.69;4905782;29;20691;-65
2022/09/13 06:36:30;;;;;;;18.30;3.67;;;16.80;99.90;;;17.36;81.49;100148.38;4905775;29;21269;-66
2022/09/13 06:38:59;;;;;;;3.90;3.40;;;16.80;99.90;;;17.35;81.76;100154.66;4914143;29;20651;-65
2022/09/13 06:41:26;;;;;;;5.90;4.03;;;16.70;99.90;;;17.37;81.53;100161.44;4915182;29;20646;-65
2022/09/13 06:43:57;;;;;;;5.80;3.63;;;16.70;99.90;;;17.55;80.90;100170.00;4915683;29;20685;-65
2022/09/13 06:46:26;;;;;;;5.30;4.07;;;16.80;99.90;;;17.59;79.57;100176.59;4909664;29;20675;-66
2022/09/13 06:48:53;;;;;;;4.10;3.70;;;16.90;99.90;;;17.69;79.88;100172.00;4913492;29;21194;-64
2022/09/13 06:51:23;;;;;;;5.50;3.87;;;17.00;99.90;;;17.69;79.75;100174.63;4906488;29;20642;-65
2022/09/13 06:53:51;;;;;;;7.93;3.50;;;17.00;99.90;;;17.52;81.03;100164.25;4905797;29;20610;-65
2022/09/13 06:56:25;;;;;;;3.77;3.37;;;17.00;99.90;;;17.47;80.91;100155.97;4907082;29;20638;-65
2022/09/13 06:58:56;;;;;;;4.97;3.23;;;16.90;99.90;;;17.69;80.24;100174.63;4899536;29;20670;-65
2022/09/13 07:01:30;;;;;;;3.77;3.20;;;17.00;99.90;;;17.51;80.74;100173.13;4897167;29;20647;-64
2022/09/13 07:04:10;;;;;;;6.70;3.80;;;17.00;99.90;;;17.67;80.11;100167.88;4897895;29;21232;-65
2022/09/13 07:06:40;;;;;;;2.70;1.90;;;17.10;99.90;;;17.55;80.42;100174.44;4911747;29;20730;-62
2022/09/13 07:09:12;;;;;;;4.30;3.57;;;17.00;99.90;;;17.64;80.57;100173.47;4909424;29;20695;-65
2022/09/13 07:11:41;;;;;;;7.10;4.43;;;17.00;99.90;;;17.74;79.26;100171.47;4910140;29;20639;-64
2022/09/13 07:14:12;;;;;;;4.90;3.60;;;17.10;99.90;;;17.81;79.00;100173.28;4908064;29;20694;-65
2022/09/13 07:16:39;;;;;;;4.30;3.47;;;17.10;99.90;;;18.01;77.86;100180.84;4912008;29;20637;-65
2022/09/13 07:19:12;;;;;;;7.63;4.50;;;17.20;99.90;;;18.22;77.03;100181.09;4923265;29;20674;-65
2022/09/13 07:21:39;;;;;;;5.43;4.60;;;17.30;99.90;;;18.38;76.34;100184.50;4914701;29;20671;-65
2022/09/13 07:24:06;;;;;;;7.13;3.77;;;17.50;99.90;;;18.40;76.49;100189.63;4927373;29;20651;-65
2022/09/13 07:26:33;;;;;;;5.73;4.33;;;17.60;99.90;;;18.59;75.80;100195.34;4918575;29;20747;-64
2022/09/13 07:29:04;;;;;;;10.60;3.97;;;17.70;99.90;;;18.47;75.51;100196.72;4934876;28;21423;-65
2022/09/13 07:31:37;;;;;;;6.00;4.47;;;17.70;99.90;;;18.91;73.94;100196.19;4903223;29;20710;-65
2022/09/13 07:34:10;;;;;;;6.77;4.73;;;17.90;99.90;;;18.93;73.73;100188.91;4899334;29;20657;-65
2022/09/13 07:36:37;;;;;;;5.57;4.53;;;18.10;99.90;;;19.15;72.66;100188.09;4906504;29;20641;-65
2022/09/13 07:39:05;;;;;;;5.83;4.30;;;18.30;99.90;;;19.26;72.33;100182.41;4913793;29;20627;-65
2022/09/13 07:41:33;;;;;;;6.13;3.83;;;18.40;99.90;;;19.31;71.57;100188.78;4903193;29;20695;-64
2022/09/13 07:44:01;;;;;;;5.80;4.03;;;18.50;99.90;;;19.60;70.66;100182.81;4913110;29;20634;-65
2022/09/13 07:46:31;;;;;;;5.57;4.10;;;18.60;99.90;;;19.77;70.06;100180.84;4903050;29;20714;-65
2022/09/13 07:49:00;;;;;;;4.87;4.00;;;18.80;99.90;;;19.88;69.80;100178.59;4895928;29;20837;-65
2022/09/13 07:51:33;;;;;;;4.80;3.93;;;18.90;99.90;;;19.95;69.81;100165.44;4895200;29;20699;-65
2022/09/13 07:54:04;;;;;;;6.20;4.90;;;19.00;99.90;;;19.93;69.83;100151.56;4902225;29;20650;-65
2022/09/13 07:56:36;;;;;;;5.70;4.37;;;19.10;99.90;;;19.94;69.62;100161.97;4914059;29;20662;-65
2022/09/13 07:59:06;;;;;;;6.93;4.70;;;19.10;99.90;;;20.03;69.70;100166.19;4905383;29;20662;-66
2022/09/13 08:01:39;;;;;;;9.03;4.43;;;19.20;99.90;;;20.11;69.90;100197.88;4895104;29;20674;-65
2022/09/13 08:04:10;;;;;;;8.20;5.30;;;19.20;99.90;;;20.19;69.86;100198.81;4894543;29;20631;-65
2022/09/13 08:06:39;;;;;;;5.87;4.20;;;19.30;99.90;;;20.37;69.21;100186.03;4898630;29;20683;-65
2022/09/13 08:09:08;;;;;;;6.73;4.27;;;19.40;99.90;;;20.53;67.88;100185.84;4896735;29;20615;-66
2022/09/13 08:11:44;;;;;;;5.73;4.63;;;19.50;99.90;;;20.82;66.99;100175.19;4903873;29;20643;-66
2022/09/13 08:14:14;;;;;;;5.57;4.00;;;19.70;99.90;;;21.00;66.16;100154.34;4898654;29;20623;-65
2022/09/13 08:16:41;;;;;;;6.10;4.83;;;19.90;99.90;;;21.27;65.22;100158.94;4901821;29;20685;-65
2022/09/13 08:19:13;;;;;;;4.93;4.17;;;20.10;99.90;;;21.65;64.04;100159.47;4912486;29;20672;-66
2022/09/13 08:21:41;;;;;;;6.90;4.57;;;20.40;99.90;;;22.31;62.39;100155.41;4898717;29;20742;-64
2022/09/13 08:24:20;;;;;;;7.60;4.93;;;20.80;99.90;;;23.00;59.71;100164.06;4894889;29;20626;-66
2022/09/13 08:26:48;;;;;;;8.00;4.83;;;21.30;99.90;;;23.06;58.88;100153.44;4893153;29;20667;-66
2022/09/13 08:29:15;;;;;;;8.20;5.53;;;21.60;99.90;;;22.95;58.73;100155.88;4908936;29;20624;-67
2022/09/13 08:31:43;;;;;;;9.60;5.27;;;21.70;99.90;;;22.72;59.44;100150.09;4902939;29;20659;-66
2022/09/13 08:34:14;;;;;;;8.50;4.77;;;21.70;99.90;;;22.74;59.52;100154.19;4894710;29;21043;-66
2022/09/13 08:36:42;;;;;;;8.60;5.77;;;21.50;99.90;;;22.63;60.09;100157.44;4908780;29;20634;-66
2022/09/13 08:39:12;;;;;;;8.80;5.27;;;21.60;99.90;;;22.44;60.52;100152.81;4915153;29;20626;-67
2022/09/13 08:41:44;;;;;;;7.53;4.93;;;21.50;99.90;;;22.39;60.80;100147.25;4913547;29;20670;-67
2022/09/13 08:44:40;;;;;;;6.83;5.33;;;21.40;99.90;;;22.26;61.35;100165.81;4914050;29;20622;-67
2022/09/13 08:47:29;;;;;;;6.97;5.77;;;21.30;99.90;;;22.30;61.39;100178.50;4914990;29;20661;-66
2022/09/13 08:50:14;;;;;;;6.40;4.97;;;21.20;99.90;;;22.61;60.93;100178.06;4917752;29;20658;-66
2022/09/13 08:53:17;;;;;;;6.80;5.10;;;21.30;99.90;;;23.41;58.99;100193.22;4898648;29;21179;-66
2022/09/13 08:56:12;;;;;;;4.60;4.00;;;21.60;99.90;;;25.01;54.40;100190.66;4898763;29;20623;-66
2022/09/13 08:59:32;;;;;;;8.53;4.50;;;22.50;99.90;;;26.20;50.66;100187.88;4898719;29;20679;-66
2022/09/13 09:02:08;;;;;;;8.17;4.77;;;23.40;99.90;;;26.62;48.88;100176.31;4898043;29;20666;-66
2022/09/13 09:04:44;;;;;;;6.30;5.13;;;24.10;99.90;;;27.56;46.75;100174.53;4898379;29;21190;-66
2022/09/13 09:07:20;;;;;;;11.70;4.77;;;24.70;99.90;;;28.33;44.65;100170.69;4927242;29;20686;-66
2022/09/13 09:10:04;;;;;;;5.87;4.73;;;25.30;99.90;;;27.53;44.14;100158.13;4898769;29;20623;-67
2022/09/13 09:13:05;;;;;;;5.57;4.67;;;25.30;98.90;;;27.10;45.55;100144.97;4916123;29;21230;-66
2022/09/13 09:15:50;;;;;;;6.03;4.40;;;25.10;99.10;;;27.08;46.51;100157.78;4915805;29;20671;-66
2022/09/13 09:18:28;;;;;;;5.90;4.37;;;25.00;99.50;;;27.35;46.11;100147.50;4916087;29;21279;-66
2022/09/13 09:20:57;;;;;;;5.50;4.70;;;25.20;99.40;;;27.55;45.83;100145.31;4916007;29;20661;-66
2022/09/13 09:23:36;;;;;;;5.30;4.47;;;25.40;99.20;;;28.93;42.82;100136.19;4911978;29;20670;-66
2022/09/13 09:26:33;;;;;;;5.17;4.70;;;26.00;98.50;;;30.11;40.66;100149.41;4924061;29;20633;-66
2022/09/13 09:29:10;;;;;;;5.57;4.67;;;26.80;97.40;;;30.43;39.89;100171.09;4935055;29;20680;-65
2022/09/13 09:31:47;;;;;;;6.73;4.50;;;27.30;96.40;;;30.88;38.90;100168.94;4919128;29;20721;-65
2022/09/13 09:34:50;;;;;;;6.70;4.37;;;27.70;95.10;;;32.07;36.79;100186.41;4917170;29;20625;-65
2022/09/13 09:37:23;;;;;;;5.17;4.40;;;28.50;93.60;;;32.86;35.11;100192.44;4916754;29;20638;-66
2022/09/13 09:40:03;;;;;;;5.63;4.80;;;29.20;92.30;;;33.27;34.57;100193.34;4909668;29;20711;-66
2022/09/13 09:42:53;;;;;;;7.17;3.90;;;29.70;91.10;;;32.93;34.99;100197.59;4899264;29;20693;-64
2022/09/13 09:45:40;;;;;;;4.27;3.87;;;29.70;90.20;;;33.39;34.70;100198.50;4895748;29;20682;-63
2022/09/13 09:48:16;;;;;;;4.43;4.00;;;30.10;88.20;;;32.63;35.84;100190.22;4898076;29;20666;-63
2022/09/13 09:50:57;;;;;;;4.83;3.97;;;29.90;87.30;;;30.51;38.04;100179.56;4908812;29;20673;-63
2022/09/13 09:53:40;;;;;;;4.33;3.93;;;28.70;87.00;;;28.94;42.00;100169.25;4916661;29;20622;-63
2022/09/13 09:56:29;;;;;;;4.27;3.87;;;27.90;90.10;;;28.35;43.80;100163.22;4913514;29;20657;-64
2022/09/13 09:58:56;;;;;;;5.90;4.87;;;26.90;92.00;;;27.67;45.73;100160.34;4896403;29;20638;-65
2022/09/13 10:01:33;;;;;;;4.70;4.27;;;26.70;92.90;;;28.11;44.94;100160.84;4897474;29;20687;-66
2022/09/13 10:04:09;;;;;;;4.57;4.17;;;26.50;93.20;;;27.26;46.04;100143.50;4897290;29;20646;-67
2022/09/13 10:06:39;;;;;;;6.67;4.63;;;26.00;93.50;;;25.85;49.07;100136.81;4903287;29;21242;-65
2022/09/13 10:09:21;;;;;;;6.07;4.57;;;25.30;94.60;;;25.59;50.13;100140.56;4909496;29;20657;-68
2022/09/13 10:11:57;;;;;;;5.43;3.87;;;24.70;95.90;;;25.73;50.82;100128.69;4908814;29;21030;-68
2022/09/13 10:14:33;;;;;;;5.43;4.20;;;24.50;97.00;;;26.39;49.34;100118.13;4915123;29;21165;-66
2022/09/13 10:17:22;;;;;;;5.83;4.67;;;24.70;97.40;;;27.18;47.52;100128.56;4907174;29;20646;-66
2022/09/13 10:20:12;;;;;;;5.23;3.73;;;25.20;96.90;;;28.37;44.04;100145.03;4907914;29;20693;-67
2022/09/13 10:22:41;;;;;;;4.83;4.33;;;26.00;96.40;;;28.07;44.15;100165.00;4900247;29;21183;-66
2022/09/13 10:25:22;;;;;;;5.53;3.80;;;26.10;94.50;;;27.95;44.25;100166.88;4909954;29;20634;-66
2022/09/13 10:27:54;;;;;;;4.10;3.70;;;26.10;94.10;;;27.28;45.69;100168.19;4911184;29;21213;-68
2022/09/13 10:30:47;;;;;;;4.87;4.37;;;25.90;94.50;;;27.06;46.15;100178.59;4911457;29;20663;-66
2022/09/13 10:33:25;;;;;;;4.30;3.90;;;25.70;94.80;;;26.98;46.08;100181.63;4915160;29;20626;-66
2022/09/13 10:35:57;;;;;;;5.17;4.10;;;25.70;94.70;;;26.33;47.69;100177.03;4913691;29;20631;-65
2022/09/13 10:38:33;;;;;;;7.57;4.10;;;25.30;95.00;;;26.12;49.27;100180.97;4895347;29;21030;-64
2022/09/13 10:41:08;;;;;;;11.13;6.53;;;25.10;96.00;;;25.97;49.45;100183.16;4895211;29;20666;-64
2022/09/13 10:43:36;;;;;;;6.07;5.07;;;25.00;96.40;;;25.93;49.88;100184.63;4894991;29;20627;-64
2022/09/13 10:46:12;;;;;;;6.67;5.30;;;24.80;96.80;;;25.84;50.15;100184.09;4907644;29;20626;-63
2022/09/13 10:48:55;;;;;;;4.23;3.60;;;24.80;96.90;;;25.81;50.52;100179.19;4910496;29;20623;-65